Costa Serena — ICAZ — position and weather

sailwx.info

Track history (hours):
 
Tides and Currents Weather Stations Pressure Air Temp Water Temp Dewpoint Dewpoint Depression Visibility Wind Speed Wind Dir Waves Ship Positions

Costa Serena

Last reported at 2017-Apr-29 09:56 UTC. Time now 2017-Apr-30 14:53 UTC.
Position N 31°16' E 121°54'.

Length 290 m; draft 8.2 m.

Type: Ship. MMSI: 247187600.

Date/timePositionNaut miles runAvg speedWind from/ knotsBaromVisibWave heightAir tempDewpointWater temp
2017-Apr-29 09:56N 31°16' E 121°54'714.8
2017-Apr-29 09:27N 31°18' E 121°46'612.8
2017-Apr-29 09:00N 31°21' E 121°40'612.2
2017-Apr-29 08:30N 31°24' E 121°34'3 6.3
2017-Apr-29 08:00N 31°25' E 121°30'0 0.0
2017-Apr-29 07:30N 31°25' E 121°30'0 0.0
2017-Apr-29 07:00N 31°25' E 121°30'0 0.0
2017-Apr-29 06:30N 31°25' E 121°30'0 0.0
2017-Apr-29 06:00N 31°25' E 121°30'0 0.0
2017-Apr-29 05:30N 31°25' E 121°30'0 0.0
2017-Apr-29 05:01N 31°25' E 121°30'0 0.0
2017-Apr-29 04:30N 31°25' E 121°30'0 0.0
2017-Apr-29 04:00N 31°25' E 121°30'0 0.0
2017-Apr-29 03:30N 31°25' E 121°30'0 0.0
2017-Apr-29 03:00N 31°25' E 121°30'0 0.0
2017-Apr-29 02:30N 31°25' E 121°30'0 0.0
2017-Apr-29 02:01N 31°25' E 121°30'0 0.0
2017-Apr-29 01:30N 31°25' E 121°30'0 0.0
2017-Apr-29 01:00N 31°25' E 121°30'0 0.0
2017-Apr-29 00:30N 31°25' E 121°30'0 0.0
2017-Apr-29 00:00N 31°25' E 121°30'0 0.0
2017-Apr-28 23:30N 31°25' E 121°30'0 0.0
2017-Apr-28 23:00N 31°25' E 121°30'0 0.0
2017-Apr-28 22:30N 31°25' E 121°30'0 0.0
2017-Apr-28 22:00N 31°25' E 121°30'0 0.0
2017-Apr-28 21:30N 31°25' E 121°30'0 0.0
2017-Apr-28 21:00N 31°25' E 121°30'0 0.0
2017-Apr-28 20:30N 31°25' E 121°30'0 0.0
2017-Apr-28 20:00N 31°25' E 121°30'0 0.0
2017-Apr-28 19:30N 31°25' E 121°30'0 0.0
2017-Apr-28 19:00N 31°25' E 121°30'1 1.3
2017-Apr-28 18:30N 31°25' E 121°31'5 9.4
2017-Apr-28 18:00N 31°23' E 121°36'611.4
2017-Apr-28 17:27N 31°20' E 121°42'5 9.5
2017-Apr-28 16:54N 31°18' E 121°48'4 9.8
2017-Apr-28 16:28N 31°16' E 121°53'  
2017-Apr-25 14:52N 31°20' E 121°42'411.5
2017-Apr-25 14:30N 31°22' E 121°38'7 7.3
2017-Apr-25 13:29N 31°25' E 121°30'0 0.0
2017-Apr-25 12:53N 31°25' E 121°30'0 0.0
2017-Apr-25 12:26N 31°25' E 121°30'0 0.0
2017-Apr-25 11:56N 31°25' E 121°30'0 0.0
2017-Apr-25 11:29N 31°25' E 121°30'0 0.0
2017-Apr-25 10:58N 31°25' E 121°30'0 0.0
2017-Apr-25 10:28N 31°25' E 121°30'0 0.0
2017-Apr-25 09:58N 31°25' E 121°30'0 0.0
2017-Apr-25 09:25N 31°25' E 121°30'0 0.0
2017-Apr-25 09:00N 31°25' E 121°30'0 0.0
2017-Apr-25 08:27N 31°25' E 121°30'0 0.0
2017-Apr-25 07:57N 31°25' E 121°30'0 0.0
2017-Apr-25 07:30N 31°25' E 121°30'0 0.0
2017-Apr-25 06:54N 31°25' E 121°30'0 0.0
2017-Apr-25 06:29N 31°25' E 121°30'0 0.0
2017-Apr-25 05:59N 31°25' E 121°30'0 0.0
2017-Apr-25 05:17N 31°25' E 121°30'0 0.0
2017-Apr-24 23:11N 31°25' E 121°30'3 5.5
2017-Apr-24 22:36N 31°23' E 121°34'211.3
2017-Apr-24 22:27N 31°23' E 121°36'  
2017-Apr-20 23:40N 31°25' E 121°31'  
Track history (hours):
 
Tides and Currents Weather Stations Pressure Air Temp Water Temp Dewpoint Dewpoint Depression Visibility Wind Speed Wind Dir Waves Ship Positions

Costa Serena

Last reported at 2017-Apr-29 09:56 UTC. Time now 2017-Apr-30 14:53 UTC.
Position N 31°16' E 121°54'.

Length 290 m; draft 8.2 m.

Type: Ship. MMSI: 247187600.

Date/timePositionNaut miles runAvg speedWind from/ knotsBaromVisibWave heightAir tempDewpointWater temp
2017-Apr-29 09:56N 31°16' E 121°54'714.8
2017-Apr-29 09:27N 31°18' E 121°46'612.8
2017-Apr-29 09:00N 31°21' E 121°40'612.2
2017-Apr-29 08:30N 31°24' E 121°34'3 6.3
2017-Apr-29 08:00N 31°25' E 121°30'0 0.0
2017-Apr-29 07:30N 31°25' E 121°30'0 0.0
2017-Apr-29 07:00N 31°25' E 121°30'0 0.0
2017-Apr-29 06:30N 31°25' E 121°30'0 0.0
2017-Apr-29 06:00N 31°25' E 121°30'0 0.0
2017-Apr-29 05:30N 31°25' E 121°30'0 0.0
2017-Apr-29 05:01N 31°25' E 121°30'0 0.0
2017-Apr-29 04:30N 31°25' E 121°30'0 0.0
2017-Apr-29 04:00N 31°25' E 121°30'0 0.0
2017-Apr-29 03:30N 31°25' E 121°30'0 0.0
2017-Apr-29 03:00N 31°25' E 121°30'0 0.0
2017-Apr-29 02:30N 31°25' E 121°30'0 0.0
2017-Apr-29 02:01N 31°25' E 121°30'0 0.0
2017-Apr-29 01:30N 31°25' E 121°30'0 0.0
2017-Apr-29 01:00N 31°25' E 121°30'0 0.0
2017-Apr-29 00:30N 31°25' E 121°30'0 0.0
2017-Apr-29 00:00N 31°25' E 121°30'0 0.0
2017-Apr-28 23:30N 31°25' E 121°30'0 0.0
2017-Apr-28 23:00N 31°25' E 121°30'0 0.0
2017-Apr-28 22:30N 31°25' E 121°30'0 0.0
2017-Apr-28 22:00N 31°25' E 121°30'0 0.0
2017-Apr-28 21:30N 31°25' E 121°30'0 0.0
2017-Apr-28 21:00N 31°25' E 121°30'0 0.0
2017-Apr-28 20:30N 31°25' E 121°30'0 0.0
2017-Apr-28 20:00N 31°25' E 121°30'0 0.0
2017-Apr-28 19:30N 31°25' E 121°30'0 0.0
2017-Apr-28 19:00N 31°25' E 121°30'1 1.3
2017-Apr-28 18:30N 31°25' E 121°31'5 9.4
2017-Apr-28 18:00N 31°23' E 121°36'611.4
2017-Apr-28 17:27N 31°20' E 121°42'5 9.5
2017-Apr-28 16:54N 31°18' E 121°48'4 9.8
2017-Apr-28 16:28N 31°16' E 121°53'  
2017-Apr-25 14:52N 31°20' E 121°42'411.5
2017-Apr-25 14:30N 31°22' E 121°38'7 7.3
2017-Apr-25 13:29N 31°25' E 121°30'0 0.0
2017-Apr-25 12:53N 31°25' E 121°30'0 0.0
2017-Apr-25 12:26N 31°25' E 121°30'0 0.0
2017-Apr-25 11:56N 31°25' E 121°30'0 0.0
2017-Apr-25 11:29N 31°25' E 121°30'0 0.0
2017-Apr-25 10:58N 31°25' E 121°30'0 0.0
2017-Apr-25 10:28N 31°25' E 121°30'0 0.0
2017-Apr-25 09:58N 31°25' E 121°30'0 0.0
2017-Apr-25 09:25N 31°25' E 121°30'0 0.0
2017-Apr-25 09:00N 31°25' E 121°30'0 0.0
2017-Apr-25 08:27N 31°25' E 121°30'0 0.0
2017-Apr-25 07:57N 31°25' E 121°30'0 0.0
2017-Apr-25 07:30N 31°25' E 121°30'0 0.0
2017-Apr-25 06:54N 31°25' E 121°30'0 0.0
2017-Apr-25 06:29N 31°25' E 121°30'0 0.0
2017-Apr-25 05:59N 31°25' E 121°30'0 0.0
2017-Apr-25 05:17N 31°25' E 121°30'0 0.0
2017-Apr-24 23:11N 31°25' E 121°30'3 5.5
2017-Apr-24 22:36N 31°23' E 121°34'211.3
2017-Apr-24 22:27N 31°23' E 121°36'  
2017-Apr-20 23:40N 31°25' E 121°31'  

Dump ship's entire track history